createdAt,value
2023-01-19T00:01:26.711Z,1.34
2023-01-19T00:06:28.366Z,1.49
2023-01-19T00:11:30.096Z,1.17
2023-01-19T00:16:31.782Z,1.10
2023-01-19T00:21:33.426Z,1.29
2023-01-19T00:26:34.996Z,1.00
2023-01-19T00:31:36.812Z,1.20
2023-01-19T00:36:38.367Z,0.99
2023-01-19T00:41:58.582Z,1.16
2023-01-19T00:47:01.001Z,1.27
2023-01-19T00:52:02.584Z,1.11
2023-01-19T00:57:04.289Z,1.00
2023-01-19T01:02:06.244Z,1.04
2023-01-19T01:07:07.913Z,1.12
2023-01-19T01:12:09.469Z,1.17
2023-01-19T01:17:11.586Z,1.14
2023-01-19T01:22:13.161Z,1.19
2023-01-19T01:27:14.779Z,1.19
2023-01-19T01:32:17.184Z,1.03
2023-01-19T01:37:18.717Z,1.19
2023-01-19T01:42:26.609Z,1.15
2023-01-19T01:47:36.270Z,0.96
2023-01-19T01:52:42.811Z,0.94
2023-01-19T01:58:05.255Z,0.89
2023-01-19T02:03:06.976Z,0.97
2023-01-19T02:08:46.174Z,0.75
2023-01-19T02:13:48.290Z,0.69
2023-01-19T02:18:50.010Z,0.72
2023-01-19T02:23:54.075Z,0.58
2023-01-19T02:29:00.671Z,0.56
2023-01-19T02:34:03.396Z,0.67
2023-01-19T02:39:06.007Z,0.39
2023-01-19T02:44:09.032Z,0.27
2023-01-19T02:49:10.648Z,0.06
2023-01-19T02:54:50.673Z,-0.04
2023-01-19T02:59:55.260Z,0.06
2023-01-19T03:05:06.062Z,0.29
2023-01-19T03:10:12.824Z,0.18
2023-01-19T03:15:23.834Z,0.18
2023-01-19T03:20:28.702Z,0.11
2023-01-19T03:25:33.253Z,0.34
2023-01-19T03:30:40.792Z,0.48
2023-01-19T03:35:48.860Z,0.20
2023-01-19T03:40:52.480Z,0.27
2023-01-19T03:45:55.281Z,0.19
2023-01-19T03:50:56.885Z,0.12
2023-01-19T03:55:58.470Z,-0.06
2023-01-19T04:01:00.090Z,0.07
2023-01-19T04:06:02.166Z,0.15
2023-01-19T04:11:03.911Z,0.02
2023-01-19T04:16:07.475Z,0.07
2023-01-19T04:21:09.214Z,-0.14
2023-01-19T04:26:10.803Z,-0.07
2023-01-19T04:31:12.537Z,-0.20
2023-01-19T04:36:14.189Z,-0.19
2023-01-19T04:41:15.834Z,-0.40
2023-01-19T04:46:17.432Z,-0.31
2023-01-19T04:51:19.105Z,-0.18
2023-01-19T04:56:20.657Z,-0.39
2023-01-19T05:01:22.656Z,-0.51
2023-01-19T05:06:24.273Z,-0.50
2023-01-19T05:11:25.825Z,-0.67
2023-01-19T05:16:27.450Z,-0.48
2023-01-19T05:21:29.020Z,-0.39
2023-01-19T05:26:30.659Z,-0.51
2023-01-19T05:31:32.323Z,-0.51
2023-01-19T05:36:34.018Z,-0.39
2023-01-19T05:41:35.819Z,-0.52
2023-01-19T05:46:37.873Z,-0.47
2023-01-19T05:51:40.444Z,-0.51
2023-01-19T05:56:42.685Z,-0.70
2023-01-19T06:01:44.281Z,-0.70
2023-01-19T06:06:49.704Z,-0.53
2023-01-19T06:11:54.085Z,-0.70
2023-01-19T06:16:55.755Z,-0.72
2023-01-19T06:21:57.723Z,-0.78
2023-01-19T06:27:00.324Z,-0.68
2023-01-19T06:32:01.918Z,-0.83
2023-01-19T06:37:03.934Z,-0.69
2023-01-19T06:42:05.514Z,-0.79
2023-01-19T06:47:15.032Z,-0.83
2023-01-19T06:52:18.373Z,-0.86
2023-01-19T06:57:19.948Z,-0.79
2023-01-19T07:02:26.783Z,-0.91
2023-01-19T07:07:29.917Z,-0.77
2023-01-19T07:12:31.666Z,-0.90
2023-01-19T07:17:33.599Z,-0.85
2023-01-19T07:22:35.192Z,-0.82
2023-01-19T07:27:36.889Z,-0.80
2023-01-19T07:32:38.988Z,-0.83
2023-01-19T07:37:40.581Z,-0.76
2023-01-19T07:42:49.077Z,-0.80
2023-01-19T07:47:51.067Z,-0.66
2023-01-19T07:52:53.600Z,-0.70
2023-01-19T07:57:55.193Z,-0.68
2023-01-19T08:03:00.457Z,-0.49
2023-01-19T08:08:02.296Z,-0.49
2023-01-19T08:13:04.105Z,-0.66
2023-01-19T08:18:06.822Z,-0.54
2023-01-19T08:23:08.419Z,-0.55
2023-01-19T08:28:11.674Z,-0.53
2023-01-19T08:33:13.764Z,-0.41
2023-01-19T08:38:16.854Z,-0.35
2023-01-19T08:43:18.515Z,-0.31
2023-01-19T08:48:22.341Z,-0.26
2023-01-19T08:53:24.235Z,-0.15
2023-01-19T08:58:25.995Z,-0.10
2023-01-19T09:03:27.637Z,-0.04
2023-01-19T09:08:29.252Z,-0.06
2023-01-19T09:13:30.832Z,0.12
2023-01-19T09:18:32.407Z,0.16
2023-01-19T09:23:34.156Z,0.22
2023-01-19T09:28:37.590Z,0.26
2023-01-19T09:33:39.316Z,0.17
2023-01-19T09:38:40.991Z,0.32
2023-01-19T09:43:56.348Z,0.41
2023-01-19T09:49:01.440Z,0.64
2023-01-19T09:54:16.276Z,0.64
2023-01-19T09:59:21.908Z,0.67
2023-01-19T10:04:31.454Z,0.80
2023-01-19T10:10:11.455Z,0.83
2023-01-19T10:15:34.627Z,0.87
2023-01-19T10:20:50.153Z,1.05
2023-01-19T10:25:52.243Z,1.20
2023-01-19T10:30:56.951Z,1.14
2023-01-19T10:35:58.555Z,1.25
2023-01-19T10:41:07.683Z,1.21
2023-01-19T10:46:22.373Z,1.34
2023-01-19T10:51:24.147Z,1.38
2023-01-19T10:56:36.451Z,1.47
2023-01-19T11:01:38.334Z,1.65
2023-01-19T11:06:39.984Z,1.64
2023-01-19T11:11:43.930Z,1.79
2023-01-19T11:16:51.173Z,1.72
2023-01-19T11:21:53.547Z,1.91
2023-01-19T11:26:59.057Z,1.70
2023-01-19T11:32:12.379Z,1.73
2023-01-19T11:37:16.650Z,1.95
2023-01-19T11:42:19.240Z,1.91
2023-01-19T11:47:28.277Z,2.05
2023-01-19T11:52:57.882Z,2.16
2023-01-19T11:57:59.914Z,2.39
2023-01-19T12:03:09.764Z,2.36
2023-01-19T12:08:15.805Z,2.36
2023-01-19T12:13:22.635Z,2.48
2023-01-19T12:18:27.130Z,2.59
2023-01-19T12:23:28.633Z,2.58
2023-01-19T12:28:32.843Z,2.69
2023-01-19T12:33:38.802Z,2.74
2023-01-19T12:38:53.905Z,2.88
2023-01-19T12:44:14.035Z,2.92
2023-01-19T12:49:27.759Z,2.85
2023-01-19T12:54:31.725Z,2.82
2023-01-19T12:59:36.251Z,2.91
2023-01-19T13:04:38.422Z,2.92
2023-01-19T13:09:40.052Z,2.98
2023-01-19T13:14:42.916Z,3.02
2023-01-19T13:19:49.547Z,3.08
2023-01-19T13:25:10.550Z,3.16
2023-01-19T13:30:16.589Z,3.25
2023-01-19T13:35:19.298Z,3.28
2023-01-19T13:40:23.522Z,3.22
2023-01-19T13:45:33.344Z,3.14
2023-01-19T13:50:40.129Z,3.25
2023-01-19T13:55:41.712Z,3.18
2023-01-19T14:00:45.619Z,3.21
2023-01-19T14:05:51.649Z,3.16
2023-01-19T14:11:02.529Z,3.13
2023-01-19T14:16:17.504Z,3.17
2023-01-19T14:21:19.136Z,3.23
2023-01-19T14:26:49.613Z,3.09
2023-01-19T14:32:10.375Z,3.02
2023-01-19T14:37:32.191Z,3.01
2023-01-19T14:42:37.532Z,2.97
2023-01-19T14:47:41.690Z,2.84
2023-01-19T14:52:50.053Z,2.83
2023-01-19T14:57:51.607Z,2.79
2023-01-19T15:02:53.189Z,2.72
2023-01-19T15:07:55.190Z,2.83
2023-01-19T15:12:57.172Z,2.69
2023-01-19T15:18:00.248Z,2.65
2023-01-19T15:23:01.821Z,2.68
2023-01-19T15:28:10.776Z,2.51
2023-01-19T15:33:20.427Z,2.51
2023-01-19T15:38:22.469Z,2.54
2023-01-19T15:43:24.078Z,2.42
2023-01-19T15:48:25.716Z,2.61
2023-01-19T15:53:27.794Z,2.55
2023-01-19T15:58:29.353Z,2.53
2023-01-19T16:03:30.899Z,2.65
2023-01-19T16:08:32.510Z,2.62
2023-01-19T16:13:34.500Z,2.59
2023-01-19T16:18:36.290Z,2.52
2023-01-19T16:23:38.064Z,2.57
2023-01-19T16:28:39.616Z,2.62
2023-01-19T16:33:41.234Z,2.63
2023-01-19T16:38:42.832Z,2.56
2023-01-19T16:43:44.411Z,2.59
2023-01-19T16:48:45.982Z,2.70
2023-01-19T16:53:50.036Z,2.75
2023-01-19T16:58:55.730Z,2.70
2023-01-19T17:03:57.453Z,2.59
2023-01-19T17:08:59.253Z,2.74
2023-01-19T17:14:03.639Z,2.79
2023-01-19T17:19:06.347Z,2.80
2023-01-19T17:24:07.972Z,2.78
2023-01-19T17:29:10.240Z,2.67
2023-01-19T17:34:11.820Z,2.76
2023-01-19T17:39:14.819Z,2.62
2023-01-19T17:44:17.698Z,2.63
2023-01-19T17:49:19.382Z,2.67
2023-01-19T17:54:21.135Z,2.74
2023-01-19T17:59:22.745Z,2.57
2023-01-19T18:04:24.327Z,2.53
2023-01-19T18:09:25.909Z,2.57
2023-01-19T18:14:27.507Z,2.42
2023-01-19T18:19:29.151Z,2.44
2023-01-19T18:24:30.777Z,2.50
2023-01-19T18:29:32.420Z,2.40
2023-01-19T18:34:34.619Z,2.57
2023-01-19T18:39:36.240Z,2.39
2023-01-19T18:44:37.816Z,2.68
2023-01-19T18:49:39.375Z,2.48
2023-01-19T18:54:40.999Z,2.48
2023-01-19T18:59:43.865Z,2.74
2023-01-19T19:04:45.484Z,2.60
2023-01-19T19:09:47.074Z,2.58
2023-01-19T19:14:48.644Z,2.56
2023-01-19T19:19:50.233Z,2.64
2023-01-19T19:24:51.801Z,2.83
2023-01-19T19:29:53.868Z,2.81
2023-01-19T19:34:58.963Z,2.70
2023-01-19T19:40:00.526Z,2.81
2023-01-19T19:45:03.929Z,2.71
2023-01-19T19:50:05.921Z,2.62
2023-01-19T19:55:08.968Z,2.75
2023-01-19T20:00:11.363Z,2.67
2023-01-19T20:05:13.034Z,2.73
2023-01-19T20:10:15.142Z,2.70
2023-01-19T20:15:16.778Z,2.76
2023-01-19T20:20:18.505Z,2.79
2023-01-19T20:25:20.097Z,2.70
2023-01-19T20:30:22.440Z,2.77
2023-01-19T20:35:24.126Z,2.66
2023-01-19T20:40:25.712Z,2.76
2023-01-19T20:45:27.480Z,2.80
2023-01-19T20:50:29.097Z,2.75
2023-01-19T20:55:30.690Z,2.72
2023-01-19T21:00:32.457Z,2.81
2023-01-19T21:05:34.067Z,2.81
2023-01-19T21:10:35.658Z,2.88
2023-01-19T21:15:37.420Z,2.80
2023-01-19T21:20:39.049Z,2.80
2023-01-19T21:25:48.477Z,2.77
2023-01-19T21:31:08.146Z,2.84
2023-01-19T21:36:12.553Z,2.96
2023-01-19T21:41:16.239Z,2.82
2023-01-19T21:46:20.236Z,2.89
2023-01-19T21:51:21.878Z,3.01
2023-01-19T21:56:23.528Z,2.87
2023-01-19T22:01:25.545Z,2.96
2023-01-19T22:06:27.774Z,3.00
2023-01-19T22:11:29.989Z,3.01
2023-01-19T22:16:31.593Z,2.88
2023-01-19T22:21:35.668Z,2.96
2023-01-19T22:26:37.675Z,2.98
2023-01-19T22:31:39.948Z,3.03
2023-01-19T22:36:41.644Z,3.04
2023-01-19T22:41:45.160Z,2.94
2023-01-19T22:46:47.747Z,3.00
2023-01-19T22:51:49.470Z,2.90
2023-01-19T22:56:51.036Z,2.87
2023-01-19T23:01:52.885Z,2.86
2023-01-19T23:06:54.668Z,2.84
2023-01-19T23:11:56.278Z,2.97
2023-01-19T23:16:57.848Z,2.93
2023-01-19T23:21:59.442Z,2.85
2023-01-19T23:27:02.279Z,2.92
2023-01-19T23:32:04.128Z,2.88
2023-01-19T23:37:05.715Z,2.90
2023-01-19T23:42:08.169Z,2.94
2023-01-19T23:47:09.732Z,2.92
2023-01-19T23:52:11.279Z,2.93
2023-01-19T23:57:12.834Z,2.95
